createdAt,value
2023-03-26T00:02:24.622Z,78.61
2023-03-26T00:04:53.335Z,78.99
2023-03-26T00:07:21.299Z,78.92
2023-03-26T00:09:49.384Z,78.97
2023-03-26T00:12:18.810Z,78.80
2023-03-26T00:14:46.897Z,78.89
2023-03-26T00:17:16.227Z,78.73
2023-03-26T00:19:44.524Z,78.57
2023-03-26T00:22:13.689Z,78.54
2023-03-26T00:24:46.003Z,78.66
2023-03-26T00:27:14.707Z,78.68
2023-03-26T00:29:42.674Z,78.67
2023-03-26T00:32:10.648Z,79.05
2023-03-26T00:34:41.487Z,79.09
2023-03-26T00:37:09.474Z,79.16
2023-03-26T00:39:37.541Z,79.15
2023-03-26T00:42:08.347Z,79.12
2023-03-26T00:44:36.371Z,78.85
2023-03-26T00:47:04.338Z,78.99
2023-03-26T00:49:32.317Z,78.96
2023-03-26T00:52:03.352Z,78.95
2023-03-26T00:54:31.457Z,78.83
2023-03-26T00:56:59.479Z,78.52
2023-03-26T00:59:30.587Z,78.82
2023-03-26T01:01:58.667Z,78.88
2023-03-26T01:04:30.989Z,78.90
2023-03-26T01:07:02.940Z,78.60
2023-03-26T01:09:33.835Z,78.72
2023-03-26T01:12:02.869Z,78.67
2023-03-26T01:14:31.035Z,78.58
2023-03-26T01:16:59.997Z,78.61
2023-03-26T01:19:30.557Z,78.48
2023-03-26T01:21:59.371Z,78.54
2023-03-26T01:24:28.781Z,78.58
2023-03-26T01:27:06.089Z,78.59
2023-03-26T01:29:39.519Z,78.50
2023-03-26T01:32:15.609Z,78.59
2023-03-26T01:34:50.883Z,78.52
2023-03-26T01:37:22.267Z,78.44
2023-03-26T01:39:57.086Z,78.61
2023-03-26T01:42:34.572Z,78.60
2023-03-26T01:45:04.906Z,78.69
2023-03-26T01:47:33.510Z,78.74
2023-03-26T01:50:01.438Z,78.65
2023-03-26T01:52:31.722Z,78.54
2023-03-26T01:55:01.329Z,78.55
2023-03-26T01:57:34.982Z,78.64
2023-03-26T02:00:11.752Z,78.40
2023-03-26T02:02:46.458Z,78.36
2023-03-26T02:05:17.041Z,78.36
2023-03-26T02:07:47.964Z,78.51
2023-03-26T02:10:18.946Z,78.46
2023-03-26T02:12:47.008Z,78.32
2023-03-26T02:15:15.015Z,78.19
2023-03-26T02:17:43.258Z,78.37
2023-03-26T02:20:12.783Z,78.26
2023-03-26T02:22:42.091Z,78.47
2023-03-26T02:25:10.946Z,78.53
2023-03-26T02:27:40.683Z,78.40
2023-03-26T02:30:11.172Z,78.48
2023-03-26T02:32:40.240Z,78.44
2023-03-26T02:35:08.773Z,78.68
2023-03-26T02:37:36.781Z,78.64
2023-03-26T02:40:06.274Z,78.50
2023-03-26T02:42:34.157Z,78.31
2023-03-26T02:45:03.425Z,78.33
2023-03-26T02:47:31.536Z,78.42
2023-03-26T02:49:59.491Z,78.58
2023-03-26T02:52:27.500Z,78.61
2023-03-26T02:54:55.613Z,78.75
2023-03-26T02:57:23.922Z,79.01
2023-03-26T02:59:52.983Z,78.82
2023-03-26T03:02:24.530Z,78.98
2023-03-26T03:04:52.981Z,78.83
2023-03-26T03:07:22.879Z,78.71
2023-03-26T03:09:50.986Z,78.75
2023-03-26T03:12:19.096Z,78.43
2023-03-26T03:14:47.057Z,78.61
2023-03-26T03:17:15.062Z,78.43
2023-03-26T03:19:44.479Z,78.60
2023-03-26T03:22:12.532Z,78.68
2023-03-26T03:24:43.936Z,78.54
2023-03-26T03:27:12.941Z,78.50
2023-03-26T03:29:41.497Z,78.65
2023-03-26T03:32:09.477Z,78.52
2023-03-26T03:34:38.725Z,78.62
2023-03-26T03:37:08.131Z,78.67
2023-03-26T03:39:36.202Z,78.59
2023-03-26T03:42:04.256Z,78.33
2023-03-26T03:44:32.295Z,78.46
2023-03-26T03:47:00.174Z,78.38
2023-03-26T03:49:28.146Z,78.32
2023-03-26T03:51:56.073Z,78.37
2023-03-26T03:54:25.990Z,78.48
2023-03-26T03:56:54.189Z,78.37
2023-03-26T03:59:22.208Z,78.25
2023-03-26T04:01:50.974Z,78.24
2023-03-26T04:04:19.096Z,78.24
2023-03-26T04:06:47.215Z,78.34
2023-03-26T04:09:15.110Z,78.27
2023-03-26T04:11:44.471Z,78.11
2023-03-26T04:14:12.443Z,78.31
2023-03-26T04:16:40.586Z,77.85
2023-03-26T04:19:08.629Z,78.10
2023-03-26T04:21:38.172Z,78.03
2023-03-26T04:24:07.319Z,77.87
2023-03-26T04:26:35.657Z,77.98
2023-03-26T04:29:07.196Z,77.86
2023-03-26T04:31:36.412Z,77.64
2023-03-26T04:34:07.574Z,77.63
2023-03-26T04:36:35.893Z,77.55
2023-03-26T04:39:05.455Z,77.34
2023-03-26T04:41:33.417Z,77.67
2023-03-26T04:44:02.183Z,77.50
2023-03-26T04:46:33.793Z,77.45
2023-03-26T04:49:02.523Z,77.21
2023-03-26T04:51:38.475Z,77.05
2023-03-26T04:54:07.551Z,77.20
2023-03-26T04:56:40.662Z,76.94
2023-03-26T04:59:13.751Z,76.93
2023-03-26T05:01:46.089Z,76.53
2023-03-26T05:04:14.526Z,76.93
2023-03-26T05:06:43.236Z,76.69
2023-03-26T05:09:11.664Z,76.57
2023-03-26T05:11:39.725Z,76.19
2023-03-26T05:14:08.389Z,76.31
2023-03-26T05:16:37.733Z,76.26
2023-03-26T05:19:07.194Z,76.06
2023-03-26T05:21:35.443Z,75.61
2023-03-26T05:24:03.636Z,75.95
2023-03-26T05:26:31.740Z,75.83
2023-03-26T05:28:59.796Z,75.91
2023-03-26T05:31:28.299Z,75.56
2023-03-26T05:33:57.059Z,75.71
2023-03-26T05:36:28.461Z,75.48
2023-03-26T05:38:56.686Z,75.68
2023-03-26T05:41:24.796Z,75.53
2023-03-26T05:43:52.794Z,75.40
2023-03-26T05:46:23.486Z,75.61
2023-03-26T05:48:52.186Z,75.71
2023-03-26T05:51:20.234Z,75.60
2023-03-26T05:53:49.811Z,75.63
2023-03-26T05:56:17.786Z,75.89
2023-03-26T05:58:45.953Z,76.07
2023-03-26T06:01:17.224Z,76.13
2023-03-26T06:03:46.159Z,76.08
2023-03-26T06:06:16.511Z,76.07
2023-03-26T06:08:46.845Z,76.12
2023-03-26T06:11:16.576Z,76.04
2023-03-26T06:13:44.902Z,76.36
2023-03-26T06:16:27.269Z,76.46
2023-03-26T06:18:57.389Z,76.67
2023-03-26T06:21:25.749Z,77.06
2023-03-26T06:23:53.754Z,77.04
2023-03-26T06:26:23.278Z,77.39
2023-03-26T06:28:51.341Z,77.69
2023-03-26T06:31:19.653Z,77.79
2023-03-26T06:33:48.938Z,78.17
2023-03-26T06:36:16.884Z,78.52
2023-03-26T06:38:44.796Z,78.93
2023-03-26T06:41:12.809Z,79.34
2023-03-26T06:43:42.110Z,79.22
2023-03-26T06:46:10.480Z,79.40
2023-03-26T06:48:38.612Z,79.53
2023-03-26T06:51:07.132Z,79.79
2023-03-26T06:53:35.130Z,79.61
2023-03-26T06:56:03.440Z,79.58
2023-03-26T06:58:31.449Z,79.88
2023-03-26T07:01:00.837Z,80.17
2023-03-26T07:03:29.707Z,80.92
2023-03-26T07:05:57.635Z,81.10
2023-03-26T07:08:26.500Z,80.94
2023-03-26T07:10:54.717Z,80.67
2023-03-26T07:13:23.311Z,80.88
2023-03-26T07:15:51.250Z,80.96
2023-03-26T07:18:20.606Z,81.25
2023-03-26T07:20:48.863Z,81.84
2023-03-26T07:23:20.309Z,81.87
2023-03-26T07:25:49.884Z,81.88
2023-03-26T07:28:24.500Z,81.93
2023-03-26T07:30:58.103Z,82.04
2023-03-26T07:33:30.707Z,81.90
2023-03-26T07:36:04.725Z,81.92
2023-03-26T07:38:38.422Z,82.15
2023-03-26T07:41:10.080Z,82.33
2023-03-26T07:43:55.746Z,82.68
2023-03-26T07:46:28.898Z,83.01
2023-03-26T07:49:01.907Z,83.14
2023-03-26T07:51:30.226Z,83.25
2023-03-26T07:54:00.726Z,83.06
2023-03-26T07:56:34.490Z,83.04
2023-03-26T07:59:07.950Z,82.95
2023-03-26T08:01:46.785Z,83.03
2023-03-26T08:04:32.789Z,82.88
2023-03-26T08:07:06.491Z,83.03
2023-03-26T08:09:36.764Z,83.06
2023-03-26T08:12:10.202Z,82.98
2023-03-26T08:14:45.626Z,83.22
2023-03-26T08:17:16.338Z,83.26
2023-03-26T08:20:00.010Z,83.48
2023-03-26T08:22:31.693Z,83.54
2023-03-26T08:25:05.764Z,83.38
2023-03-26T08:27:38.772Z,83.72
2023-03-26T08:30:10.368Z,83.92
2023-03-26T08:32:38.631Z,83.92
2023-03-26T08:35:07.362Z,83.55
2023-03-26T08:37:36.863Z,83.52
2023-03-26T08:40:04.918Z,83.27
2023-03-26T08:43:00.055Z,83.38
2023-03-26T08:45:39.481Z,83.69
2023-03-26T08:48:40.640Z,84.06
2023-03-26T08:51:23.562Z,83.91
2023-03-26T08:54:03.448Z,83.71
2023-03-26T08:56:36.439Z,84.02
2023-03-26T08:59:21.529Z,84.01
2023-03-26T09:02:10.587Z,84.32
2023-03-26T09:04:56.430Z,84.74
2023-03-26T09:07:39.095Z,84.45
2023-03-26T09:10:21.529Z,84.56
2023-03-26T09:12:50.985Z,84.46
2023-03-26T09:15:31.726Z,84.42
2023-03-26T09:18:19.499Z,84.21
2023-03-26T09:21:09.088Z,84.45
2023-03-26T09:23:55.032Z,84.60
2023-03-26T09:26:28.515Z,84.33
2023-03-26T09:29:20.703Z,84.45
2023-03-26T09:32:05.019Z,84.76
2023-03-26T09:34:34.761Z,84.66
2023-03-26T09:37:20.540Z,84.58
2023-03-26T09:39:54.703Z,84.65
2023-03-26T09:42:33.093Z,84.84
2023-03-26T09:45:22.787Z,84.59
2023-03-26T09:48:08.947Z,84.63
2023-03-26T09:50:41.530Z,85.11
2023-03-26T09:53:30.567Z,85.05
2023-03-26T09:56:04.810Z,84.85
2023-03-26T09:58:51.747Z,84.44
2023-03-26T10:01:25.397Z,84.59
2023-03-26T10:03:59.462Z,85.06
2023-03-26T10:06:42.738Z,85.37
2023-03-26T10:09:23.993Z,85.44
2023-03-26T10:12:00.219Z,85.67
2023-03-26T10:14:33.908Z,85.60
2023-03-26T10:17:06.740Z,85.80
2023-03-26T10:19:44.589Z,85.68
2023-03-26T10:22:21.746Z,85.51
2023-03-26T10:25:02.924Z,85.53
2023-03-26T10:27:40.618Z,85.51
2023-03-26T10:30:23.929Z,85.84
2023-03-26T10:32:59.193Z,85.60
2023-03-26T10:35:32.805Z,85.52
2023-03-26T10:38:10.317Z,85.57
2023-03-26T10:40:43.846Z,85.74
2023-03-26T10:43:29.606Z,85.73
2023-03-26T10:46:11.255Z,85.63
2023-03-26T10:48:47.838Z,85.62
2023-03-26T10:51:25.175Z,85.69
2023-03-26T10:53:55.022Z,85.83
2023-03-26T10:56:24.713Z,85.84
2023-03-26T10:58:52.762Z,85.66
2023-03-26T11:01:25.760Z,85.70
2023-03-26T11:03:55.041Z,85.73
2023-03-26T11:06:31.395Z,85.59
2023-03-26T11:09:04.603Z,85.67
2023-03-26T11:11:38.755Z,85.87
2023-03-26T11:14:16.844Z,85.65
2023-03-26T11:16:56.286Z,85.90
2023-03-26T11:19:28.802Z,86.07
2023-03-26T11:22:01.934Z,85.97
2023-03-26T11:24:44.632Z,86.02
2023-03-26T11:27:20.929Z,85.76
2023-03-26T11:29:54.635Z,86.17
2023-03-26T11:32:25.857Z,86.12
2023-03-26T11:34:59.460Z,85.93
2023-03-26T11:37:30.783Z,86.03
2023-03-26T11:40:00.021Z,86.05
2023-03-26T11:42:30.001Z,85.86
2023-03-26T11:45:00.817Z,85.89
2023-03-26T11:47:33.403Z,86.02
2023-03-26T11:50:02.949Z,86.33
2023-03-26T11:52:31.304Z,86.10
2023-03-26T11:54:59.547Z,85.80
2023-03-26T11:57:29.586Z,86.05
2023-03-26T12:00:03.764Z,86.25
2023-03-26T12:02:39.332Z,86.22
2023-03-26T12:05:15.681Z,86.01
2023-03-26T12:07:47.210Z,86.14
2023-03-26T12:10:38.970Z,86.06
2023-03-26T12:13:23.009Z,86.32
2023-03-26T12:15:51.117Z,85.97
2023-03-26T12:18:24.388Z,86.19
2023-03-26T12:21:03.268Z,85.96
2023-03-26T12:23:38.906Z,85.98
2023-03-26T12:26:13.390Z,85.62
2023-03-26T12:28:45.380Z,85.62
2023-03-26T12:31:18.484Z,85.59
2023-03-26T12:33:52.946Z,85.74
2023-03-26T12:36:23.483Z,85.72
2023-03-26T12:39:16.790Z,86.05
2023-03-26T12:44:42.054Z,86.09
2023-03-26T12:44:54.889Z,86.19
2023-03-26T12:48:00.564Z,86.01
2023-03-26T12:50:15.709Z,86.38
2023-03-26T12:52:53.909Z,85.90
2023-03-26T12:55:36.840Z,85.75
2023-03-26T12:58:14.277Z,85.83
2023-03-26T13:00:49.539Z,85.71
2023-03-26T13:03:38.175Z,85.61
2023-03-26T13:06:24.332Z,85.74
2023-03-26T13:09:08.850Z,85.69
2023-03-26T13:11:43.093Z,85.56
2023-03-26T13:14:22.381Z,85.84
2023-03-26T13:16:54.134Z,85.74
2023-03-26T13:19:24.650Z,85.47
2023-03-26T13:22:01.551Z,85.73
2023-03-26T13:24:35.521Z,85.50
2023-03-26T13:27:14.933Z,85.80
2023-03-26T13:29:51.975Z,85.76
2023-03-26T13:32:24.237Z,85.70
2023-03-26T13:35:03.747Z,86.06
2023-03-26T13:37:38.593Z,85.73
2023-03-26T13:40:15.702Z,85.68
2023-03-26T13:42:49.548Z,85.70
2023-03-26T13:45:25.793Z,86.01
2023-03-26T13:47:56.392Z,85.68
2023-03-26T13:50:26.894Z,85.59
2023-03-26T13:53:00.303Z,85.61
2023-03-26T13:55:31.266Z,85.97
2023-03-26T13:58:05.097Z,85.93
2023-03-26T14:00:43.662Z,85.63
2023-03-26T14:03:17.873Z,86.17
2023-03-26T14:05:48.125Z,86.01
2023-03-26T14:08:21.158Z,85.98
2023-03-26T14:10:53.160Z,86.11
2023-03-26T14:13:25.143Z,85.97
2023-03-26T14:15:57.411Z,85.83
2023-03-26T14:18:29.518Z,85.72
2023-03-26T14:21:08.516Z,85.83
2023-03-26T14:23:58.456Z,85.57
2023-03-26T14:26:37.354Z,85.89
2023-03-26T14:29:18.790Z,85.94
2023-03-26T14:31:52.557Z,85.95
2023-03-26T14:34:38.536Z,86.18
2023-03-26T14:37:28.206Z,85.89
2023-03-26T14:40:15.015Z,85.65
2023-03-26T14:42:44.660Z,85.92
2023-03-26T14:45:27.351Z,86.00
2023-03-26T14:48:09.797Z,86.03
2023-03-26T14:50:48.121Z,85.82
2023-03-26T14:53:20.164Z,85.72
2023-03-26T14:56:02.625Z,86.05
2023-03-26T14:58:45.332Z,85.92
2023-03-26T15:01:25.446Z,85.64
2023-03-26T15:04:14.432Z,85.68
2023-03-26T15:06:59.205Z,85.73
2023-03-26T15:09:49.408Z,85.88
2023-03-26T15:12:25.865Z,85.95
2023-03-26T15:15:26.158Z,85.79
2023-03-26T15:18:17.919Z,85.71
2023-03-26T15:21:00.837Z,86.11
2023-03-26T15:23:47.500Z,85.64
2023-03-26T15:26:37.247Z,85.89
2023-03-26T15:29:14.081Z,85.84
2023-03-26T15:32:00.742Z,86.04
2023-03-26T15:34:48.796Z,86.25
2023-03-26T15:37:37.371Z,86.21
2023-03-26T15:40:25.910Z,86.34
2023-03-26T15:43:01.619Z,86.15
2023-03-26T15:45:38.972Z,86.29
2023-03-26T15:48:16.116Z,86.26
2023-03-26T15:50:56.063Z,86.18
2023-03-26T15:53:35.536Z,86.27
2023-03-26T15:56:15.065Z,86.10
2023-03-26T15:58:48.325Z,86.14
2023-03-26T16:01:26.073Z,86.00
2023-03-26T16:03:59.745Z,86.13
2023-03-26T16:06:31.369Z,86.08
2023-03-26T16:09:08.106Z,86.21
2023-03-26T16:11:59.800Z,85.99
2023-03-26T16:14:42.906Z,86.26
2023-03-26T16:17:17.774Z,86.15
2023-03-26T16:19:56.632Z,86.13
2023-03-26T16:22:42.973Z,86.22
2023-03-26T16:25:27.619Z,86.08
2023-03-26T16:28:21.385Z,86.16
2023-03-26T16:31:04.342Z,86.15
2023-03-26T16:33:54.814Z,86.20
2023-03-26T16:36:34.578Z,86.18
2023-03-26T16:39:13.658Z,86.10
2023-03-26T16:41:56.566Z,85.99
2023-03-26T16:44:40.182Z,85.87
2023-03-26T16:47:13.434Z,85.87
2023-03-26T16:50:08.516Z,86.08
2023-03-26T16:52:44.187Z,85.83
2023-03-26T16:55:19.912Z,86.01
2023-03-26T16:57:53.948Z,86.19
2023-03-26T17:00:27.524Z,86.04
2023-03-26T17:03:00.151Z,86.14
2023-03-26T17:05:35.435Z,85.93
2023-03-26T17:08:07.468Z,85.82
2023-03-26T17:10:41.321Z,85.89
2023-03-26T17:13:11.613Z,86.18
2023-03-26T17:15:44.719Z,85.90
2023-03-26T17:18:23.064Z,85.78
2023-03-26T17:20:59.836Z,85.86
2023-03-26T17:23:31.884Z,86.18
2023-03-26T17:26:05.217Z,85.99
2023-03-26T17:28:42.028Z,86.07
2023-03-26T17:31:17.499Z,85.98
2023-03-26T17:33:46.195Z,86.01
2023-03-26T17:36:29.640Z,86.01
2023-03-26T17:39:01.997Z,86.13
2023-03-26T17:41:48.340Z,86.05
2023-03-26T17:44:30.591Z,85.97
2023-03-26T17:46:59.277Z,86.00
2023-03-26T17:49:29.521Z,86.39
2023-03-26T17:52:00.758Z,86.24
2023-03-26T17:54:32.692Z,86.24
2023-03-26T17:57:04.045Z,86.10
2023-03-26T17:59:33.283Z,86.33
2023-03-26T18:02:03.684Z,85.92
2023-03-26T18:04:33.220Z,86.23
2023-03-26T18:07:19.071Z,86.25
2023-03-26T18:10:00.504Z,86.02
2023-03-26T18:12:36.289Z,86.24
2023-03-26T18:15:19.014Z,86.46
2023-03-26T18:17:48.399Z,86.18
2023-03-26T18:20:26.386Z,86.36
2023-03-26T18:22:54.673Z,86.49
2023-03-26T18:25:26.352Z,86.44
2023-03-26T18:27:54.488Z,86.69
2023-03-26T18:30:26.028Z,86.36
2023-03-26T18:33:00.144Z,86.28
2023-03-26T18:35:29.321Z,86.05
2023-03-26T18:38:00.180Z,86.05
2023-03-26T18:40:34.169Z,86.27
2023-03-26T18:43:02.150Z,85.96
2023-03-26T18:45:31.704Z,86.41
2023-03-26T18:48:01.194Z,85.93
2023-03-26T18:50:30.082Z,86.32
2023-03-26T18:53:00.212Z,86.66
2023-03-26T18:55:28.780Z,86.55
2023-03-26T18:57:58.261Z,86.30
2023-03-26T19:00:28.149Z,86.55
2023-03-26T19:03:01.115Z,86.31
2023-03-26T19:05:29.556Z,86.15
2023-03-26T19:07:57.923Z,86.56
2023-03-26T19:10:26.662Z,86.38
2023-03-26T19:13:00.020Z,86.26
2023-03-26T19:15:29.384Z,86.06
2023-03-26T19:17:59.903Z,86.33
2023-03-26T19:20:29.672Z,86.01
2023-03-26T19:22:58.609Z,85.82
2023-03-26T19:25:28.135Z,85.40
2023-03-26T19:27:56.327Z,85.90
2023-03-26T19:30:30.526Z,86.13
2023-03-26T19:33:13.577Z,86.33
2023-03-26T19:35:42.525Z,86.47
2023-03-26T19:38:24.344Z,86.83
2023-03-26T19:40:53.309Z,86.68
2023-03-26T19:43:21.610Z,86.44
2023-03-26T19:45:59.674Z,86.78
2023-03-26T19:48:45.314Z,86.35
2023-03-26T19:51:20.316Z,86.16
2023-03-26T19:53:54.293Z,86.47
2023-03-26T19:56:23.157Z,85.78
2023-03-26T19:58:51.451Z,86.70
2023-03-26T20:01:22.020Z,86.67
2023-03-26T20:03:51.768Z,86.81
2023-03-26T20:06:27.852Z,86.83
2023-03-26T20:09:02.442Z,86.85
2023-03-26T20:11:33.594Z,86.82
2023-03-26T20:14:02.437Z,86.38
2023-03-26T20:16:32.392Z,86.82
2023-03-26T20:19:02.614Z,86.41
2023-03-26T20:21:32.496Z,86.66
2023-03-26T20:24:00.906Z,86.21
2023-03-26T20:26:28.905Z,86.45
2023-03-26T20:28:57.553Z,86.85
2023-03-26T20:31:26.901Z,86.67
2023-03-26T20:33:56.564Z,86.32
2023-03-26T20:36:32.999Z,86.20
2023-03-26T20:39:05.842Z,86.74
2023-03-26T20:41:34.637Z,86.95
2023-03-26T20:44:03.892Z,87.02
2023-03-26T20:46:33.365Z,86.28
2023-03-26T20:49:02.990Z,85.78
2023-03-26T20:51:30.946Z,86.27
2023-03-26T20:53:58.840Z,86.19
2023-03-26T20:56:27.182Z,86.56
2023-03-26T20:59:09.883Z,85.97
2023-03-26T21:01:39.109Z,85.77
2023-03-26T21:04:08.636Z,86.44
2023-03-26T21:06:36.606Z,86.99
2023-03-26T21:09:05.195Z,86.42
2023-03-26T21:11:41.012Z,86.89
2023-03-26T21:14:10.987Z,86.90
2023-03-26T21:16:39.502Z,87.02
2023-03-26T21:19:10.332Z,86.83
2023-03-26T21:21:47.767Z,87.28
2023-03-26T21:24:20.236Z,87.56
2023-03-26T21:26:51.255Z,87.25
2023-03-26T21:29:19.517Z,86.64
2023-03-26T21:31:47.839Z,86.36
2023-03-26T21:34:17.720Z,86.12
2023-03-26T21:36:46.732Z,86.12
2023-03-26T21:39:15.497Z,86.43
2023-03-26T21:41:46.157Z,87.28
2023-03-26T21:44:15.496Z,86.85
2023-03-26T21:46:44.189Z,86.76
2023-03-26T21:49:12.922Z,86.75
2023-03-26T21:51:42.847Z,87.68
2023-03-26T21:54:18.849Z,87.51
2023-03-26T21:56:50.025Z,87.35
2023-03-26T21:59:23.765Z,87.63
2023-03-26T22:01:55.841Z,87.33
2023-03-26T22:04:29.926Z,86.78
2023-03-26T22:07:02.342Z,86.73
2023-03-26T22:09:36.308Z,86.90
2023-03-26T22:12:05.082Z,86.81
2023-03-26T22:14:33.853Z,86.62
2023-03-26T22:17:01.849Z,86.17
2023-03-26T22:19:30.581Z,86.09
2023-03-26T22:22:00.287Z,86.35
2023-03-26T22:24:28.707Z,86.41
2023-03-26T22:26:57.327Z,85.93
2023-03-26T22:29:26.236Z,86.14
2023-03-26T22:31:54.420Z,86.58
2023-03-26T22:34:23.251Z,86.33
2023-03-26T22:36:52.631Z,86.53
2023-03-26T22:39:22.186Z,86.25
2023-03-26T22:41:50.209Z,86.55
2023-03-26T22:44:20.299Z,86.58
2023-03-26T22:46:51.827Z,86.52
2023-03-26T22:49:20.017Z,86.52
2023-03-26T22:51:48.161Z,86.42
2023-03-26T22:54:16.215Z,86.89
2023-03-26T22:56:45.995Z,87.48
2023-03-26T22:59:14.677Z,86.74
2023-03-26T23:01:44.276Z,86.76
2023-03-26T23:04:13.111Z,87.09
2023-03-26T23:06:59.979Z,86.34
2023-03-26T23:09:30.366Z,86.98
2023-03-26T23:11:59.918Z,86.99
2023-03-26T23:14:28.735Z,86.70
2023-03-26T23:16:57.345Z,86.33
2023-03-26T23:19:25.716Z,86.03
2023-03-26T23:21:53.830Z,85.79
2023-03-26T23:24:21.904Z,86.31
2023-03-26T23:26:51.298Z,86.19
2023-03-26T23:29:21.290Z,86.06
2023-03-26T23:31:49.448Z,85.96
2023-03-26T23:34:20.865Z,86.46
2023-03-26T23:36:49.657Z,86.73
2023-03-26T23:39:17.803Z,86.72
2023-03-26T23:41:46.252Z,86.51
2023-03-26T23:44:16.061Z,86.38
2023-03-26T23:46:45.459Z,86.68
2023-03-26T23:49:13.813Z,86.85
2023-03-26T23:51:45.035Z,86.63
2023-03-26T23:54:13.085Z,85.97
2023-03-26T23:56:41.133Z,86.52
2023-03-26T23:59:09.248Z,86.48
